Time;durP1;ratioP1;P1;durP2;ratioP2;P2;SDS_P1;SDS_P2;PMS_P1;PMS_P2;Temp;Humidity;BMP_temperature;BMP_pressure;BME280_temperature;BME280_humidity;BME280_pressure;Samples;Min_cycle;Max_cycle;Signal;HPM_P1;HPM_P2
2022/03/10 00:00:12;;;;;;;19.02;15.00;;;;;;;;;;521797;28;1216;-73
2022/03/10 00:12:59;;;;;;;21.10;16.48;;;;;;;;;;521579;28;1323;-73
2022/03/10 00:13:16;;;;;;;20.65;15.73;;;;;;;;;;519390;28;1341;-73
2022/03/10 00:13:31;;;;;;;20.50;16.08;;;;;;;;;;517487;28;1409;-73
2022/03/10 00:13:47;;;;;;;19.93;16.13;;;;;;;;;;516935;28;1351;-73
2022/03/10 00:14:02;;;;;;;19.43;15.97;;;;;;;;;;517248;28;1256;-73
2022/03/10 00:14:17;;;;;;;18.27;15.25;;;;;;;;;;517069;28;1419;-73
2022/03/10 00:14:33;;;;;;;18.27;15.37;;;;;;;;;;518175;28;1234;-73
2022/03/10 00:14:48;;;;;;;18.98;15.88;;;;;;;;;;519459;28;994;-73
2022/03/10 00:15:07;;;;;;;20.50;15.97;;;;;;;;;;517743;28;1248;-73
2022/03/10 00:15:23;;;;;;;21.20;15.93;;;;;;;;;;519213;28;832;-73
2022/03/10 00:15:39;;;;;;;21.10;15.90;;;;;;;;;;519962;28;855;-73
2022/03/10 00:15:54;;;;;;;20.03;15.97;;;;;;;;;;517209;28;1135;-73
2022/03/10 00:16:09;;;;;;;18.70;15.98;;;;;;;;;;515969;28;766;-73
2022/03/10 00:16:25;;;;;;;19.23;15.43;;;;;;;;;;515878;28;1328;-73
2022/03/10 00:16:40;;;;;;;20.13;14.90;;;;;;;;;;517936;28;1427;-73
2022/03/10 00:16:56;;;;;;;20.77;15.43;;;;;;;;;;517665;28;1718;-73
2022/03/10 00:17:12;;;;;;;20.70;15.73;;;;;;;;;;515516;28;1345;-73
2022/03/10 00:17:27;;;;;;;19.80;15.70;;;;;;;;;;515727;28;1264;-73
2022/03/10 00:17:42;;;;;;;20.02;15.93;;;;;;;;;;515866;28;741;-73
2022/03/10 00:18:01;;;;;;;20.30;16.00;;;;;;;;;;515547;28;852;-73
2022/03/10 00:18:16;;;;;;;19.52;15.73;;;;;;;;;;515732;28;1013;-73
2022/03/10 00:18:31;;;;;;;19.87;16.00;;;;;;;;;;514513;28;1122;-73
2022/03/10 00:18:47;;;;;;;20.70;16.07;;;;;;;;;;516050;28;856;-73
2022/03/10 00:19:02;;;;;;;20.02;15.70;;;;;;;;;;516711;28;1253;-73
2022/03/10 00:19:18;;;;;;;20.90;15.60;;;;;;;;;;518724;28;883;-73
2022/03/10 00:19:34;;;;;;;20.87;15.53;;;;;;;;;;517830;28;1393;-73
2022/03/10 00:19:49;;;;;;;18.63;15.55;;;;;;;;;;519043;28;1191;-73
2022/03/10 00:20:05;;;;;;;19.33;15.43;;;;;;;;;;519558;28;871;-73
2022/03/10 00:20:23;;;;;;;20.58;15.40;;;;;;;;;;519730;28;995;-73
2022/03/10 00:21:32;;;;;;;20.35;15.93;;;;;;;;;;519891;28;640;-73
2022/03/10 00:21:48;;;;;;;20.30;15.57;;;;;;;;;;521564;28;1976;-73
2022/03/10 00:22:04;;;;;;;20.02;15.55;;;;;;;;;;521933;28;784;-73
2022/03/10 00:22:19;;;;;;;19.30;15.33;;;;;;;;;;521850;28;804;-73
2022/03/10 00:22:49;;;;;;;19.60;15.38;;;;;;;;;;522207;28;836;-73
2022/03/10 00:23:04;;;;;;;19.98;15.88;;;;;;;;;;519878;28;1255;-73
2022/03/10 00:23:19;;;;;;;19.73;15.77;;;;;;;;;;519474;28;1596;-73
2022/03/10 00:23:35;;;;;;;19.08;15.82;;;;;;;;;;517724;28;1445;-73
2022/03/10 00:23:50;;;;;;;18.93;15.70;;;;;;;;;;517660;28;1426;-73
2022/03/10 00:24:06;;;;;;;19.92;15.93;;;;;;;;;;517668;28;851;-73
2022/03/10 00:24:21;;;;;;;20.80;15.77;;;;;;;;;;517659;28;958;-73
2022/03/10 00:24:36;;;;;;;21.30;15.65;;;;;;;;;;517641;28;883;-73
2022/03/10 00:24:51;;;;;;;20.83;15.33;;;;;;;;;;517586;28;978;-73
2022/03/10 00:25:08;;;;;;;18.97;15.00;;;;;;;;;;517830;28;1330;-73
2022/03/10 00:25:23;;;;;;;19.00;15.15;;;;;;;;;;518310;28;817;-73
2022/03/10 00:25:39;;;;;;;20.03;15.33;;;;;;;;;;519834;28;860;-73
2022/03/10 00:27:15;;;;;;;20.70;15.73;;;;;;;;;;520580;28;951;-73
2022/03/10 00:27:31;;;;;;;20.90;16.20;;;;;;;;;;519653;28;1258;-73
2022/03/10 00:27:46;;;;;;;20.85;15.70;;;;;;;;;;520136;28;1414;-73
2022/03/10 00:28:02;;;;;;;20.57;15.73;;;;;;;;;;519624;28;1531;-73
2022/03/10 00:28:18;;;;;;;19.88;15.82;;;;;;;;;;515743;28;1364;-73
2022/03/10 00:28:33;;;;;;;19.42;15.68;;;;;;;;;;515699;28;800;-73
2022/03/10 00:28:48;;;;;;;19.50;15.70;;;;;;;;;;515910;28;841;-73
2022/03/10 00:29:05;;;;;;;18.13;15.33;;;;;;;;;;515722;28;917;-73
2022/03/10 00:29:20;;;;;;;17.95;15.38;;;;;;;;;;516211;28;793;-73
2022/03/10 00:29:35;;;;;;;19.80;15.57;;;;;;;;;;515537;28;1251;-73
2022/03/10 00:29:51;;;;;;;20.37;15.70;;;;;;;;;;513479;28;1236;-73
2022/03/10 00:30:07;;;;;;;19.63;15.65;;;;;;;;;;514003;28;820;-73
2022/03/10 00:30:22;;;;;;;19.30;15.57;;;;;;;;;;515179;28;815;-73
2022/03/10 00:30:37;;;;;;;19.97;15.97;;;;;;;;;;516302;28;793;-73
2022/03/10 00:30:53;;;;;;;21.05;15.82;;;;;;;;;;517516;28;1410;-73
2022/03/10 00:31:09;;;;;;;20.33;15.07;;;;;;;;;;517250;28;1525;-73
2022/03/10 00:31:24;;;;;;;19.65;15.38;;;;;;;;;;517776;28;809;-73
2022/03/10 00:31:42;;;;;;;19.83;16.10;;;;;;;;;;519553;28;927;-73
2022/03/10 00:31:58;;;;;;;19.63;16.05;;;;;;;;;;517615;28;1395;-73
2022/03/10 00:32:13;;;;;;;19.83;16.00;;;;;;;;;;517440;28;944;-73
2022/03/10 00:32:29;;;;;;;20.87;16.37;;;;;;;;;;517232;28;1182;-73
2022/03/10 00:32:49;;;;;;;21.90;16.20;;;;;;;;;;517632;28;931;-73
2022/03/10 00:33:04;;;;;;;19.35;15.55;;;;;;;;;;517721;28;1244;-73
2022/03/10 00:33:20;;;;;;;19.23;15.60;;;;;;;;;;515536;28;1235;-73
2022/03/10 00:33:35;;;;;;;19.10;15.27;;;;;;;;;;515898;28;789;-73
2022/03/10 00:33:50;;;;;;;19.10;15.23;;;;;;;;;;515913;28;844;-73
2022/03/10 00:34:06;;;;;;;19.30;15.73;;;;;;;;;;515800;28;1314;-73
2022/03/10 00:34:22;;;;;;;19.25;15.93;;;;;;;;;;513742;28;1224;-73
2022/03/10 00:34:37;;;;;;;20.83;16.27;;;;;;;;;;512966;28;1313;-73
2022/03/10 00:34:52;;;;;;;21.50;16.50;;;;;;;;;;513586;28;864;-73
2022/03/10 00:35:08;;;;;;;19.80;15.80;;;;;;;;;;512097;28;1243;-73
2022/03/10 00:35:25;;;;;;;19.65;15.80;;;;;;;;;;511721;29;1382;-73
2022/03/10 00:35:40;;;;;;;20.40;16.05;;;;;;;;;;511820;29;850;-73
2022/03/10 00:35:55;;;;;;;19.75;15.10;;;;;;;;;;511594;29;746;-73
2022/03/10 00:36:10;;;;;;;19.90;15.33;;;;;;;;;;511962;28;932;-73
2022/03/10 00:36:26;;;;;;;20.07;16.00;;;;;;;;;;513979;28;753;-73
2022/03/10 00:36:41;;;;;;;19.98;15.93;;;;;;;;;;515169;28;947;-73
2022/03/10 00:36:57;;;;;;;19.60;15.90;;;;;;;;;;516054;28;923;-73
2022/03/10 00:37:12;;;;;;;18.50;15.57;;;;;;;;;;517910;28;1332;-73
2022/03/10 00:37:28;;;;;;;18.70;15.70;;;;;;;;;;519481;28;940;-73
2022/03/10 00:37:45;;;;;;;20.58;15.75;;;;;;;;;;519798;28;796;-73
2022/03/10 00:38:00;;;;;;;22.77;15.90;;;;;;;;;;519675;28;808;-73
2022/03/10 00:38:15;;;;;;;21.55;16.00;;;;;;;;;;517440;28;1293;-73
2022/03/10 00:38:30;;;;;;;19.30;15.30;;;;;;;;;;515795;28;1153;-73
2022/03/10 00:38:46;;;;;;;19.03;15.00;;;;;;;;;;515288;28;1303;-73
2022/03/10 00:39:02;;;;;;;19.45;15.63;;;;;;;;;;515697;28;1181;-73
2022/03/10 00:39:17;;;;;;;19.73;16.27;;;;;;;;;;515796;28;765;-73
2022/03/10 00:39:32;;;;;;;19.67;16.20;;;;;;;;;;515925;28;741;-73
2022/03/10 00:39:48;;;;;;;19.37;15.87;;;;;;;;;;515419;28;808;-73
2022/03/10 00:40:04;;;;;;;19.25;15.63;;;;;;;;;;515947;28;1196;-73
2022/03/10 00:40:21;;;;;;;19.73;16.13;;;;;;;;;;515621;28;781;-73
2022/03/10 00:40:36;;;;;;;19.42;15.77;;;;;;;;;;517019;28;879;-73
2022/03/10 00:40:51;;;;;;;20.30;15.90;;;;;;;;;;518045;28;749;-73
2022/03/10 00:41:07;;;;;;;22.30;16.47;;;;;;;;;;519909;28;884;-73
2022/03/10 00:41:22;;;;;;;21.75;16.25;;;;;;;;;;517494;28;1381;-73
2022/03/10 00:41:37;;;;;;;19.47;15.60;;;;;;;;;;517669;28;1914;-73
2022/03/10 00:41:52;;;;;;;19.87;15.60;;;;;;;;;;517843;28;1132;-73
2022/03/10 00:42:08;;;;;;;20.27;15.98;;;;;;;;;;517777;28;808;-73
2022/03/10 00:42:23;;;;;;;19.83;16.03;;;;;;;;;;517630;28;1154;-73
2022/03/10 00:42:39;;;;;;;21.00;16.10;;;;;;;;;;517643;28;1245;-73
2022/03/10 00:42:55;;;;;;;20.60;16.08;;;;;;;;;;517624;28;832;-73
2022/03/10 00:43:11;;;;;;;19.37;16.30;;;;;;;;;;517624;28;872;-73
2022/03/10 00:43:27;;;;;;;20.27;16.00;;;;;;;;;;517779;28;804;-73
2022/03/10 00:43:43;;;;;;;19.90;16.10;;;;;;;;;;518211;28;1240;-73
2022/03/10 00:43:58;;;;;;;21.02;16.63;;;;;;;;;;519600;28;943;-73
2022/03/10 00:44:14;;;;;;;20.57;16.00;;;;;;;;;;519741;28;840;-73
2022/03/10 00:44:30;;;;;;;19.63;15.27;;;;;;;;;;520461;28;725;-73
2022/03/10 00:44:45;;;;;;;20.17;15.50;;;;;;;;;;521475;28;839;-73
2022/03/10 00:45:00;;;;;;;20.90;15.70;;;;;;;;;;519508;28;1265;-73
2022/03/10 00:45:16;;;;;;;20.50;15.60;;;;;;;;;;519584;28;1168;-73
2022/03/10 00:45:32;;;;;;;21.45;16.00;;;;;;;;;;519577;28;812;-73
2022/03/10 00:45:47;;;;;;;20.87;15.93;;;;;;;;;;517741;28;745;-73
2022/03/10 00:46:02;;;;;;;20.27;16.15;;;;;;;;;;517487;28;796;-73
2022/03/10 00:46:17;;;;;;;20.27;16.20;;;;;;;;;;519719;28;1135;-73
2022/03/10 00:46:33;;;;;;;19.37;15.90;;;;;;;;;;519714;28;1033;-73
2022/03/10 00:46:48;;;;;;;19.00;15.90;;;;;;;;;;520026;28;983;-73
2022/03/10 00:47:03;;;;;;;19.00;16.07;;;;;;;;;;517910;28;1235;-73
2022/03/10 00:47:19;;;;;;;18.93;16.00;;;;;;;;;;515120;28;1161;-73
2022/03/10 00:47:35;;;;;;;19.40;15.93;;;;;;;;;;515633;28;1368;-73
2022/03/10 00:47:50;;;;;;;19.85;16.30;;;;;;;;;;515860;28;1269;-73
2022/03/10 00:48:06;;;;;;;19.83;15.80;;;;;;;;;;517750;28;1181;-73
2022/03/10 00:48:21;;;;;;;19.73;15.73;;;;;;;;;;517944;28;927;-73
2022/03/10 00:48:37;;;;;;;18.90;15.93;;;;;;;;;;517819;28;1058;-73
2022/03/10 00:48:52;;;;;;;18.63;15.48;;;;;;;;;;517605;28;1265;-73
2022/03/10 00:49:13;;;;;;;19.60;15.80;;;;;;;;;;517930;28;801;-73
2022/03/10 00:49:28;;;;;;;20.08;16.30;;;;;;;;;;519633;28;1215;-73
2022/03/10 00:49:44;;;;;;;19.13;15.73;;;;;;;;;;519336;28;788;-73
2022/03/10 00:50:00;;;;;;;19.43;16.00;;;;;;;;;;517622;28;1334;-73
2022/03/10 00:50:15;;;;;;;21.10;16.40;;;;;;;;;;515782;28;1198;-73
2022/03/10 00:50:30;;;;;;;21.40;15.80;;;;;;;;;;515923;28;761;-73
2022/03/10 00:50:46;;;;;;;21.15;16.27;;;;;;;;;;515960;28;1184;-73
2022/03/10 00:51:01;;;;;;;20.53;16.60;;;;;;;;;;515955;28;1249;-73
2022/03/10 00:51:16;;;;;;;19.50;15.93;;;;;;;;;;515288;28;920;-73
2022/03/10 00:51:32;;;;;;;18.98;15.82;;;;;;;;;;516024;28;1215;-73
2022/03/10 00:51:50;;;;;;;18.97;16.27;;;;;;;;;;515176;28;1358;-73
2022/03/10 01:02:53;;;;;;;20.98;16.23;;;;;;;;;;522604;28;662;-73
2022/03/10 01:03:08;;;;;;;20.40;16.30;;;;;;;;;;522533;28;820;-73
2022/03/10 01:03:23;;;;;;;20.03;16.03;;;;;;;;;;522512;28;756;-73
2022/03/10 01:03:39;;;;;;;19.30;16.05;;;;;;;;;;520136;28;1231;-73
2022/03/10 01:14:52;;;;;;;21.00;16.02;;;;;;;;;;521638;28;1205;-73
2022/03/10 01:15:09;;;;;;;19.90;16.05;;;;;;;;;;522173;28;1307;-73
2022/03/10 01:15:27;;;;;;;18.98;15.75;;;;;;;;;;523684;28;965;-73
2022/03/10 01:15:45;;;;;;;18.92;15.98;;;;;;;;;;524755;28;907;-73
2022/03/10 01:16:01;;;;;;;18.90;15.98;;;;;;;;;;524617;28;840;-73
2022/03/10 01:16:16;;;;;;;19.40;15.90;;;;;;;;;;523742;28;1137;-73
2022/03/10 01:16:31;;;;;;;20.98;16.50;;;;;;;;;;524478;28;950;-73
2022/03/10 01:16:46;;;;;;;21.27;16.53;;;;;;;;;;522173;28;1236;-73
2022/03/10 01:17:02;;;;;;;19.53;15.70;;;;;;;;;;522352;28;1171;-73
2022/03/10 01:17:17;;;;;;;20.35;15.80;;;;;;;;;;519972;28;1054;-73
2022/03/10 01:17:33;;;;;;;20.10;15.90;;;;;;;;;;520282;28;1343;-73
2022/03/10 01:17:48;;;;;;;18.97;16.03;;;;;;;;;;518210;28;1316;-73
2022/03/10 01:18:03;;;;;;;21.05;16.77;;;;;;;;;;520231;28;1183;-73
2022/03/10 01:18:19;;;;;;;21.47;17.03;;;;;;;;;;517975;28;1250;-73
2022/03/10 01:18:34;;;;;;;20.35;16.95;;;;;;;;;;516849;28;1492;-73
2022/03/10 01:18:49;;;;;;;19.80;16.40;;;;;;;;;;514060;28;1501;-73
2022/03/10 01:19:05;;;;;;;20.63;16.20;;;;;;;;;;514077;28;1311;-73
2022/03/10 01:19:20;;;;;;;22.45;16.65;;;;;;;;;;514090;28;1275;-73
2022/03/10 01:19:35;;;;;;;22.33;16.80;;;;;;;;;;514200;28;918;-73
2022/03/10 01:19:51;;;;;;;22.33;17.13;;;;;;;;;;517926;28;1178;-73
2022/03/10 01:20:06;;;;;;;23.00;17.67;;;;;;;;;;516158;28;1376;-73
2022/03/10 01:20:24;;;;;;;22.77;17.23;;;;;;;;;;515817;28;730;-73
2022/03/10 01:20:39;;;;;;;21.70;16.73;;;;;;;;;;516536;28;1433;-73
2022/03/10 01:20:54;;;;;;;20.07;16.23;;;;;;;;;;518325;28;721;-73
2022/03/10 01:21:09;;;;;;;19.70;16.00;;;;;;;;;;520246;28;1106;-73
2022/03/10 01:21:25;;;;;;;20.40;16.33;;;;;;;;;;519909;28;1156;-73
2022/03/10 01:21:41;;;;;;;20.10;16.23;;;;;;;;;;518430;28;1910;-73
2022/03/10 01:21:56;;;;;;;20.13;15.90;;;;;;;;;;520286;28;809;-73
2022/03/10 01:22:12;;;;;;;20.25;15.85;;;;;;;;;;518261;28;1362;-73
2022/03/10 01:22:27;;;;;;;20.63;16.40;;;;;;;;;;516083;28;1164;-73
2022/03/10 01:22:42;;;;;;;20.67;16.63;;;;;;;;;;517857;28;911;-73
2022/03/10 01:22:57;;;;;;;20.38;16.48;;;;;;;;;;518135;28;840;-73
2022/03/10 01:23:13;;;;;;;20.90;16.47;;;;;;;;;;518575;28;1136;-73
2022/03/10 01:23:28;;;;;;;20.77;16.50;;;;;;;;;;518199;28;1230;-74
2022/03/10 01:23:43;;;;;;;20.13;16.50;;;;;;;;;;520038;28;823;-73
2022/03/10 01:23:59;;;;;;;20.43;16.60;;;;;;;;;;520369;28;911;-73
2022/03/10 01:24:14;;;;;;;21.00;16.57;;;;;;;;;;522413;28;768;-73
2022/03/10 01:24:29;;;;;;;19.95;15.85;;;;;;;;;;520976;28;1711;-73
2022/03/10 01:24:45;;;;;;;19.40;15.67;;;;;;;;;;519439;28;749;-73
2022/03/10 01:25:00;;;;;;;19.73;15.83;;;;;;;;;;518231;28;1278;-73
2022/03/10 01:25:18;;;;;;;22.33;15.90;;;;;;;;;;520223;28;891;-73
2022/03/10 01:25:33;;;;;;;24.02;16.10;;;;;;;;;;520172;28;1262;-73
2022/03/10 01:25:48;;;;;;;22.13;15.80;;;;;;;;;;521918;28;958;-73
2022/03/10 01:26:03;;;;;;;20.50;15.67;;;;;;;;;;520113;28;1461;-73
2022/03/10 01:26:19;;;;;;;19.50;15.50;;;;;;;;;;518008;28;1292;-73
2022/03/10 01:26:34;;;;;;;19.48;15.68;;;;;;;;;;517964;28;931;-73
2022/03/10 01:26:50;;;;;;;19.60;15.80;;;;;;;;;;518246;28;813;-74
2022/03/10 01:27:06;;;;;;;19.85;15.75;;;;;;;;;;520361;28;935;-73
2022/03/10 01:27:21;;;;;;;19.10;15.48;;;;;;;;;;518035;28;1343;-73
2022/03/10 01:27:36;;;;;;;19.63;15.70;;;;;;;;;;516120;28;1168;-73
2022/03/10 01:27:52;;;;;;;20.47;16.07;;;;;;;;;;516569;28;923;-73
2022/03/10 01:28:07;;;;;;;20.55;16.13;;;;;;;;;;518327;28;845;-73
2022/03/10 01:28:22;;;;;;;20.80;16.43;;;;;;;;;;520315;28;772;-73
2022/03/10 01:28:38;;;;;;;22.07;16.40;;;;;;;;;;517944;28;1382;-73
2022/03/10 01:28:53;;;;;;;21.77;15.87;;;;;;;;;;517706;28;895;-73
2022/03/10 01:29:08;;;;;;;19.07;15.50;;;;;;;;;;518273;28;809;-73
2022/03/10 01:29:23;;;;;;;19.17;15.47;;;;;;;;;;520333;28;828;-73
2022/03/10 01:29:39;;;;;;;19.45;15.55;;;;;;;;;;521985;28;955;-73
2022/03/10 01:29:54;;;;;;;21.03;15.90;;;;;;;;;;520222;28;1269;-74
2022/03/10 01:30:10;;;;;;;21.07;16.10;;;;;;;;;;518228;28;1177;-73
2022/03/10 01:30:25;;;;;;;18.88;15.63;;;;;;;;;;518488;28;816;-72
2022/03/10 01:30:42;;;;;;;18.67;15.60;;;;;;;;;;520393;28;773;-73
2022/03/10 01:30:58;;;;;;;19.75;16.27;;;;;;;;;;520029;28;836;-73
2022/03/10 01:31:13;;;;;;;19.37;16.20;;;;;;;;;;519887;28;759;-73
2022/03/10 01:31:28;;;;;;;18.90;15.70;;;;;;;;;;518119;28;1137;-73
2022/03/10 01:31:44;;;;;;;19.50;15.70;;;;;;;;;;516515;28;1200;-73
2022/03/10 01:31:59;;;;;;;19.67;16.20;;;;;;;;;;516632;28;1354;-73
2022/03/10 01:32:15;;;;;;;19.47;16.40;;;;;;;;;;516027;28;1378;-73
2022/03/10 01:32:30;;;;;;;19.58;16.58;;;;;;;;;;515793;28;852;-73
2022/03/10 01:32:46;;;;;;;19.97;16.37;;;;;;;;;;516067;28;582;-73
2022/03/10 01:33:01;;;;;;;20.40;15.75;;;;;;;;;;515668;28;784;-73
2022/03/10 01:39:24;;;;;;;22.58;15.77;;;;;;;;;;524060;28;681;-73
2022/03/10 01:39:39;;;;;;;21.60;16.42;;;;;;;;;;523910;28;787;-73
2022/03/10 01:39:56;;;;;;;20.37;16.20;;;;;;;;;;524523;28;827;-73
2022/03/10 01:40:17;;;;;;;19.60;16.00;;;;;;;;;;524426;28;950;-73
2022/03/10 01:40:32;;;;;;;19.77;15.85;;;;;;;;;;525317;28;969;-73
2022/03/10 01:40:47;;;;;;;19.97;15.80;;;;;;;;;;526773;28;914;-73
2022/03/10 01:41:03;;;;;;;20.92;16.08;;;;;;;;;;526642;28;807;-73
2022/03/10 01:41:18;;;;;;;20.40;16.07;;;;;;;;;;525966;28;760;-73
2022/03/10 01:41:34;;;;;;;20.50;16.23;;;;;;;;;;526123;28;1461;-73
2022/03/10 01:41:49;;;;;;;20.02;16.02;;;;;;;;;;525440;28;1969;-73
2022/03/10 01:42:06;;;;;;;19.13;15.73;;;;;;;;;;525278;28;1444;-73
2022/03/10 01:42:25;;;;;;;20.40;16.20;;;;;;;;;;526501;28;914;-73
2022/03/10 01:42:41;;;;;;;19.70;15.90;;;;;;;;;;526602;28;901;-73
2022/03/10 01:42:56;;;;;;;19.95;15.20;;;;;;;;;;526578;28;1028;-73
2022/03/10 01:43:11;;;;;;;21.40;15.45;;;;;;;;;;526559;28;903;-73
2022/03/10 01:43:27;;;;;;;20.57;16.17;;;;;;;;;;526323;28;953;-73
2022/03/10 01:44:06;;;;;;;19.53;16.13;;;;;;;;;;524438;28;1170;-73
2022/03/10 01:44:22;;;;;;;18.73;15.18;;;;;;;;;;522386;28;1005;-73
2022/03/10 01:44:37;;;;;;;19.58;15.93;;;;;;;;;;522120;28;796;-73
2022/03/10 01:44:54;;;;;;;19.47;16.10;;;;;;;;;;521953;28;1105;-73
2022/03/10 01:45:10;;;;;;;18.83;15.73;;;;;;;;;;522383;28;828;-73
2022/03/10 01:45:25;;;;;;;18.52;15.60;;;;;;;;;;521296;28;1180;-73
2022/03/10 01:45:41;;;;;;;19.67;15.40;;;;;;;;;;522898;28;1763;-73
2022/03/10 01:45:57;;;;;;;20.03;15.83;;;;;;;;;;522771;28;1457;-73
2022/03/10 01:46:12;;;;;;;19.83;16.25;;;;;;;;;;524491;28;1074;-73
2022/03/10 01:46:28;;;;;;;19.07;15.93;;;;;;;;;;522045;28;1145;-73
2022/03/10 01:46:43;;;;;;;19.02;16.15;;;;;;;;;;522315;28;772;-73
2022/03/10 01:46:59;;;;;;;20.37;16.67;;;;;;;;;;522263;28;1117;-73
2022/03/10 01:47:14;;;;;;;20.47;16.23;;;;;;;;;;522299;28;788;-73
2022/03/10 01:47:29;;;;;;;19.58;15.93;;;;;;;;;;522137;28;986;-73
2022/03/10 01:47:45;;;;;;;19.97;16.30;;;;;;;;;;524298;28;961;-73
2022/03/10 01:48:01;;;;;;;19.95;16.50;;;;;;;;;;524471;28;1182;-73
2022/03/10 01:48:16;;;;;;;20.70;16.45;;;;;;;;;;524408;28;807;-73
2022/03/10 01:48:32;;;;;;;20.90;16.03;;;;;;;;;;524505;28;863;-73
2022/03/10 01:48:47;;;;;;;21.20;16.10;;;;;;;;;;524462;28;780;-73
2022/03/10 01:49:04;;;;;;;22.10;16.77;;;;;;;;;;522233;28;1172;-73
2022/03/10 01:49:19;;;;;;;20.48;16.52;;;;;;;;;;522379;28;876;-73
2022/03/10 01:49:35;;;;;;;19.40;16.13;;;;;;;;;;520691;28;1002;-73
2022/03/10 01:49:50;;;;;;;19.60;16.05;;;;;;;;;;521153;28;1363;-73
2022/03/10 01:50:07;;;;;;;19.65;16.02;;;;;;;;;;520269;28;1002;-73
2022/03/10 01:50:22;;;;;;;19.45;16.02;;;;;;;;;;520176;28;1100;-73
2022/03/10 01:50:38;;;;;;;19.38;16.10;;;;;;;;;;520699;28;1403;-73
2022/03/10 01:50:54;;;;;;;20.33;16.50;;;;;;;;;;522347;28;915;-73
2022/03/10 01:51:09;;;;;;;21.02;16.35;;;;;;;;;;522244;28;772;-73
2022/03/10 01:51:25;;;;;;;21.47;16.47;;;;;;;;;;522051;28;887;-73
2022/03/10 01:51:41;;;;;;;20.55;16.45;;;;;;;;;;522428;28;954;-73
2022/03/10 01:51:56;;;;;;;19.98;16.20;;;;;;;;;;522042;28;1272;-73
2022/03/10 01:52:12;;;;;;;20.38;16.17;;;;;;;;;;522215;28;843;-73
2022/03/10 01:52:28;;;;;;;20.13;16.35;;;;;;;;;;519908;28;1270;-73
2022/03/10 01:52:44;;;;;;;20.40;16.67;;;;;;;;;;520144;28;931;-73
2022/03/10 01:53:01;;;;;;;21.00;16.88;;;;;;;;;;520193;28;1022;-73
2022/03/10 01:53:17;;;;;;;20.90;16.52;;;;;;;;;;520048;28;875;-73
2022/03/10 01:53:32;;;;;;;20.00;16.20;;;;;;;;;;518165;28;1176;-73
2022/03/10 01:53:48;;;;;;;20.30;16.33;;;;;;;;;;516329;28;1124;-73
2022/03/10 01:54:04;;;;;;;20.60;16.35;;;;;;;;;;518274;28;851;-73
2022/03/10 01:54:20;;;;;;;21.23;16.05;;;;;;;;;;519139;28;895;-73
2022/03/10 01:54:36;;;;;;;23.45;16.23;;;;;;;;;;520064;28;1320;-73
2022/03/10 01:54:52;;;;;;;22.02;16.80;;;;;;;;;;519965;28;1270;-73
2022/03/10 01:55:09;;;;;;;20.88;16.50;;;;;;;;;;520164;28;808;-73
2022/03/10 01:55:25;;;;;;;20.35;16.25;;;;;;;;;;521941;28;1254;-73
2022/03/10 01:55:40;;;;;;;20.97;16.77;;;;;;;;;;523482;28;1306;-73
2022/03/10 01:55:55;;;;;;;21.25;16.80;;;;;;;;;;523310;28;1398;-73
2022/03/10 01:56:11;;;;;;;22.17;16.73;;;;;;;;;;523007;28;1421;-73
2022/03/10 01:56:26;;;;;;;21.98;16.27;;;;;;;;;;522366;28;1014;-72
2022/03/10 01:56:41;;;;;;;21.00;16.23;;;;;;;;;;522833;28;792;-73
2022/03/10 01:56:59;;;;;;;20.87;16.73;;;;;;;;;;524366;28;768;-73
2022/03/10 01:57:15;;;;;;;21.20;16.52;;;;;;;;;;524316;28;839;-73
2022/03/10 01:57:31;;;;;;;22.52;16.85;;;;;;;;;;521868;28;1168;-73
2022/03/10 01:57:46;;;;;;;22.77;17.10;;;;;;;;;;522198;28;875;-73
2022/03/10 01:58:02;;;;;;;21.58;17.00;;;;;;;;;;521781;28;752;-73
2022/03/10 01:58:17;;;;;;;21.50;17.00;;;;;;;;;;522179;28;977;-72
2022/03/10 01:58:33;;;;;;;21.00;16.60;;;;;;;;;;522278;28;1434;-73
2022/03/10 01:58:51;;;;;;;22.55;16.42;;;;;;;;;;522294;28;1333;-73
2022/03/10 01:59:06;;;;;;;22.33;16.35;;;;;;;;;;522206;28;1350;-73
2022/03/10 01:59:22;;;;;;;20.80;16.50;;;;;;;;;;520099;28;1171;-73
2022/03/10 01:59:40;;;;;;;21.10;16.45;;;;;;;;;;519795;28;1290;-73
2022/03/10 01:59:56;;;;;;;21.58;16.63;;;;;;;;;;519966;28;780;-72
2022/03/10 02:00:13;;;;;;;21.80;16.70;;;;;;;;;;519829;28;1271;-73
2022/03/10 02:00:28;;;;;;;21.13;16.58;;;;;;;;;;520970;28;967;-73
2022/03/10 02:00:44;;;;;;;20.50;16.52;;;;;;;;;;519988;28;1141;-73
2022/03/10 02:01:00;;;;;;;20.97;16.67;;;;;;;;;;520970;28;843;-73
2022/03/10 02:01:16;;;;;;;21.20;16.83;;;;;;;;;;522752;28;808;-73
2022/03/10 02:01:32;;;;;;;20.10;16.48;;;;;;;;;;521740;28;1226;-73
2022/03/10 02:01:47;;;;;;;19.57;16.03;;;;;;;;;;521778;28;1906;-73
2022/03/10 02:02:03;;;;;;;20.23;16.00;;;;;;;;;;521578;28;1286;-73
2022/03/10 02:02:18;;;;;;;20.43;15.77;;;;;;;;;;519596;28;1167;-73
2022/03/10 02:02:33;;;;;;;20.08;15.85;;;;;;;;;;518348;28;589;-73
2022/03/10 02:02:49;;;;;;;20.63;16.27;;;;;;;;;;520064;28;748;-73
2022/03/10 02:03:05;;;;;;;20.83;16.60;;;;;;;;;;519978;28;1256;-73
2022/03/10 02:03:20;;;;;;;21.00;16.83;;;;;;;;;;518351;28;1278;-73
2022/03/10 02:03:35;;;;;;;20.13;16.35;;;;;;;;;;518154;28;1194;-73
2022/03/10 02:03:50;;;;;;;20.03;16.53;;;;;;;;;;518092;28;915;-73
2022/03/10 02:04:06;;;;;;;21.87;16.73;;;;;;;;;;517686;28;864;-73
2022/03/10 02:04:22;;;;;;;22.30;16.63;;;;;;;;;;518099;28;1270;-73
2022/03/10 02:04:37;;;;;;;20.80;16.30;;;;;;;;;;517750;28;1224;-72
2022/03/10 02:04:52;;;;;;;20.57;16.27;;;;;;;;;;518323;28;788;-73
2022/03/10 02:05:08;;;;;;;21.03;16.60;;;;;;;;;;520372;28;938;-73
2022/03/10 02:05:23;;;;;;;20.67;16.60;;;;;;;;;;520334;28;1235;-73
2022/03/10 02:05:39;;;;;;;20.10;16.13;;;;;;;;;;522250;28;851;-73
2022/03/10 02:05:54;;;;;;;20.35;16.00;;;;;;;;;;522180;28;830;-73
2022/03/10 02:06:10;;;;;;;19.73;15.97;;;;;;;;;;522118;28;832;-73
2022/03/10 02:06:26;;;;;;;20.45;16.33;;;;;;;;;;520052;28;1222;-73
2022/03/10 02:06:41;;;;;;;21.40;16.40;;;;;;;;;;520105;28;1167;-73
2022/03/10 02:06:56;;;;;;;19.53;15.90;;;;;;;;;;520102;28;821;-73
2022/03/10 02:10:17;;;;;;;21.25;16.30;;;;;;;;;;524372;28;660;-73
2022/03/10 02:10:34;;;;;;;20.33;16.30;;;;;;;;;;524916;28;893;-73
2022/03/10 02:10:49;;;;;;;20.88;16.35;;;;;;;;;;526498;28;800;-73
2022/03/10 02:11:05;;;;;;;20.53;16.50;;;;;;;;;;524168;28;1310;-73
2022/03/10 02:11:20;;;;;;;21.42;16.30;;;;;;;;;;523701;28;1659;-73
2022/03/10 02:11:36;;;;;;;21.03;16.40;;;;;;;;;;524260;28;927;-74
2022/03/10 02:11:52;;;;;;;20.30;16.58;;;;;;;;;;524159;28;874;-73
2022/03/10 02:12:07;;;;;;;21.50;16.67;;;;;;;;;;524130;28;860;-73
2022/03/10 02:12:23;;;;;;;21.60;16.60;;;;;;;;;;521877;28;1155;-73
2022/03/10 02:12:38;;;;;;;21.20;16.47;;;;;;;;;;519720;28;1210;-73
2022/03/10 02:12:55;;;;;;;21.13;16.48;;;;;;;;;;519924;28;851;-73
2022/03/10 02:13:10;;;;;;;20.55;16.08;;;;;;;;;;520588;28;1338;-73
2022/03/10 02:13:25;;;;;;;20.53;15.87;;;;;;;;;;522286;28;958;-73
2022/03/10 02:13:41;;;;;;;20.50;16.20;;;;;;;;;;519568;28;1536;-73
2022/03/10 02:13:56;;;;;;;20.53;16.50;;;;;;;;;;520016;28;795;-73
2022/03/10 02:17:20;;;;;;;21.50;17.08;;;;;;;;;;520140;28;740;-73
2022/03/10 02:17:39;;;;;;;21.08;16.83;;;;;;;;;;517765;28;1239;-73
2022/03/10 02:17:54;;;;;;;22.35;16.85;;;;;;;;;;518111;28;856;-73
2022/03/10 02:18:10;;;;;;;21.97;16.57;;;;;;;;;;518248;28;806;-73
2022/03/10 02:18:25;;;;;;;20.20;16.58;;;;;;;;;;518161;28;1073;-73
2022/03/10 02:18:41;;;;;;;20.97;16.37;;;;;;;;;;515946;28;1166;-73
2022/03/10 02:18:56;;;;;;;21.27;16.37;;;;;;;;;;515888;28;924;-73
2022/03/10 02:19:11;;;;;;;20.17;16.58;;;;;;;;;;516130;28;802;-73
2022/03/10 02:19:27;;;;;;;20.33;16.63;;;;;;;;;;516823;28;896;-73
2022/03/10 02:19:43;;;;;;;20.67;16.60;;;;;;;;;;518204;28;777;-73
2022/03/10 02:19:58;;;;;;;20.38;16.73;;;;;;;;;;520174;28;868;-73
2022/03/10 02:20:13;;;;;;;20.45;16.80;;;;;;;;;;517930;28;1303;-73
2022/03/10 02:20:29;;;;;;;21.27;16.80;;;;;;;;;;518332;28;923;-73
2022/03/10 02:20:45;;;;;;;22.15;16.60;;;;;;;;;;520086;28;836;-73
2022/03/10 02:21:00;;;;;;;21.87;16.47;;;;;;;;;;519004;28;742;-73
2022/03/10 02:21:16;;;;;;;21.80;17.08;;;;;;;;;;519567;28;769;-73
2022/03/10 02:21:31;;;;;;;21.60;16.83;;;;;;;;;;519964;28;1268;-73
2022/03/10 02:21:46;;;;;;;21.87;16.70;;;;;;;;;;517843;28;1934;-73
2022/03/10 02:22:10;;;;;;;22.65;17.10;;;;;;;;;;518128;28;1281;-73
2022/03/10 02:22:26;;;;;;;22.52;16.98;;;;;;;;;;520032;28;768;-73
2022/03/10 02:22:42;;;;;;;22.50;17.00;;;;;;;;;;520010;28;895;-73
2022/03/10 02:22:57;;;;;;;21.37;16.67;;;;;;;;;;519713;28;916;-73
2022/03/10 02:23:13;;;;;;;21.30;16.65;;;;;;;;;;517984;28;1356;-73
2022/03/10 02:23:28;;;;;;;21.30;17.00;;;;;;;;;;516759;28;891;-73
2022/03/10 02:23:44;;;;;;;20.92;16.88;;;;;;;;;;516171;28;734;-73
2022/03/10 02:23:59;;;;;;;20.42;16.33;;;;;;;;;;517838;28;758;-73
2022/03/10 02:24:14;;;;;;;20.03;16.40;;;;;;;;;;520343;28;808;-73
2022/03/10 02:24:30;;;;;;;20.83;16.87;;;;;;;;;;518127;28;1331;-73